Moab, UT (84532)

1:16 PM MDT on September 25, 2017 (GMT -0600)
MMOAB | | Change Station

Elev 4473 ft 38.54 °N, 109.51 °W | Updated 197 days ago

Clear
Clear
49.0 °F
Feels Like 49 °F
N
1.0
Wind Variable Wind from West
Gusts 4.0 mph

Today
High -- | Low -- °F
--% Chance of Precip.
Yesterday
High -- | Low -- °F
Precip. -- in
Pressure 29.98 in
Visibility 10.0 miles
Clouds Clear
Windchill 49 °F
Dew Point 23 °F
Humidity 35%
Rainfall 0.00 in
Snow Depth Not available.
7:08 AM 7:09 PM
Waxing Crescent, 29% visible
METAR KCNY 251853Z AUTO VRB04KT 10SM CLR 16/M01 A3005 RMK AO2 SLP150 T01561011
Pressure 29.98 in
Visibility 10.0 miles
Clouds Clear
Windchill 49 °F
Dew Point 23 °F
Humidity 35%
Rainfall 0.00 in
Snow Depth Not available.
7:08 AM 7:09 PM
Waxing Crescent, 29% visible
METAR KCNY 251853Z AUTO VRB04KT 10SM CLR 16/M01 A3005 RMK AO2 SLP150 T01561011

Get Severe Weather Alerts

Thanks for signing up!

Be on the lookout for a verification email in your inbox.

You'll start receiving the daily forecast at 6 AM.

×

10-Day Weather Forecast

Almanac

Astronomy

Sep. 25, 2017 Rise Set
Actual Time
Civil Twilight
Nautical Twilight
Astronomical Twilight
Moon
Length of Visible Light
Length of Day
Tomorrow will be .
, % of the Moon is Illuminated

Today's Extremes

State Highs State Lows

Community

WunderPhotos

Category 6

Welcome to Category 6. This is the collective home for Weather Underground's featured writeups by Dr. Jeff Masters (right), Bob Henson (left), Chris Burt, and other regular contributors.

Nearby

Air Quality

  Air Quality AQ Index Pollutant
Not available.

Snow Depth

Station Depth Elevation

Earthquake Activity

City Distance Mag. Time & Date
Minimum magnitude displayed is 2.5.

Coastal Water Temperatures

Place Temperature

Stations

Nearby Weather Stations

Station Location Temp. Windchill Dew Point Humidity Wind Precip. Elev Updated Type
                   

Watches & Warnings

There are currently no watches in effect.